createdAt,value
2022-08-02T00:03:58.807Z,48.78
2022-08-02T00:08:59.075Z,49.28
2022-08-02T00:13:58.136Z,49.28
2022-08-02T00:18:56.936Z,49.99
2022-08-02T00:24:28.210Z,50.56
2022-08-02T00:29:16.245Z,51.02
2022-08-02T00:34:28.674Z,51.54
2022-08-02T00:39:34.355Z,52.05
2022-08-02T00:44:36.139Z,53.46
2022-08-02T00:49:34.932Z,53.96
2022-08-02T00:54:33.962Z,54.71
2022-08-02T00:59:32.696Z,55.07
2022-08-02T01:04:32.859Z,55.27
2022-08-02T01:09:31.791Z,55.36
2022-08-02T01:14:31.096Z,55.75
2022-08-02T01:19:40.489Z,55.17
2022-08-02T01:24:56.994Z,55.07
2022-08-02T01:30:01.839Z,55.17
2022-08-02T01:35:04.178Z,55.45
2022-08-02T01:40:10.650Z,54.94
2022-08-02T01:45:13.720Z,54.00
2022-08-02T01:50:15.341Z,53.97
2022-08-02T01:55:18.904Z,54.20
2022-08-02T02:00:20.909Z,53.88
2022-08-02T02:05:21.951Z,54.09
2022-08-02T02:10:26.123Z,54.44
2022-08-02T02:15:27.597Z,54.83
2022-08-02T02:20:28.253Z,54.92
2022-08-02T02:25:36.427Z,54.85
2022-08-02T02:30:50.488Z,54.86
2022-08-02T02:35:51.809Z,54.35
2022-08-02T02:40:51.372Z,54.33
2022-08-02T02:45:52.645Z,54.51
2022-08-02T02:50:52.739Z,54.67
2022-08-02T02:56:02.626Z,54.79
2022-08-02T03:01:20.901Z,54.37
2022-08-02T03:06:40.568Z,53.90
2022-08-02T03:11:40.698Z,53.89
2022-08-02T03:16:48.643Z,54.09
2022-08-02T03:21:57.427Z,53.75
2022-08-02T03:26:56.600Z,53.67
2022-08-02T03:31:57.764Z,53.22
2022-08-02T03:36:58.255Z,53.04
2022-08-02T03:41:57.442Z,52.71
2022-08-02T03:46:58.851Z,52.71
2022-08-02T03:51:57.944Z,52.63
2022-08-02T03:56:57.118Z,52.38
2022-08-02T04:01:57.343Z,52.90
2022-08-02T04:06:56.114Z,52.72
2022-08-02T04:11:56.552Z,52.55
2022-08-02T04:17:01.093Z,52.10
2022-08-02T04:22:04.913Z,52.54
2022-08-02T04:27:19.476Z,52.98
2022-08-02T04:32:25.714Z,52.77
2022-08-02T04:37:24.749Z,52.18
2022-08-02T04:42:28.350Z,52.94
2022-08-02T04:47:54.485Z,52.14
2022-08-02T04:52:47.356Z,52.14
2022-08-02T04:57:58.856Z,51.83
2022-08-02T05:03:00.314Z,52.50
2022-08-02T05:07:59.775Z,52.16
2022-08-02T05:12:58.796Z,52.19
2022-08-02T05:17:59.202Z,51.57
2022-08-02T05:22:57.963Z,52.31
2022-08-02T05:27:56.746Z,51.78
2022-08-02T05:32:55.566Z,51.34
2022-08-02T05:37:55.650Z,51.15
2022-08-02T05:42:54.520Z,50.30
2022-08-02T05:47:53.432Z,49.92
2022-08-02T05:52:58.234Z,49.80
2022-08-02T05:58:07.235Z,49.87
2022-08-02T06:03:17.898Z,49.31
2022-08-02T06:08:16.846Z,50.28
2022-08-02T06:13:17.604Z,49.06
2022-08-02T06:18:17.679Z,48.24
2022-08-02T06:23:17.925Z,48.23
2022-08-02T06:28:20.096Z,47.07
2022-08-02T06:33:18.799Z,47.18
2022-08-02T06:38:23.209Z,47.07
2022-08-02T06:43:30.339Z,45.76
2022-08-02T06:48:29.472Z,45.34
2022-08-02T06:53:28.281Z,44.77
2022-08-02T06:58:28.431Z,44.41
2022-08-02T07:03:27.268Z,43.70
2022-08-02T07:08:26.401Z,43.62
2022-08-02T07:13:26.082Z,43.18
2022-08-02T07:18:26.476Z,43.36
2022-08-02T07:23:25.305Z,41.70
2022-08-02T07:28:24.874Z,42.29
2022-08-02T07:33:38.406Z,41.87
2022-08-02T07:38:37.990Z,41.32
2022-08-02T07:43:36.838Z,41.42
2022-08-02T07:48:36.908Z,40.55
2022-08-02T07:53:50.602Z,39.97
2022-08-02T07:58:50.656Z,39.87
2022-08-02T08:03:51.040Z,39.83
2022-08-02T08:08:50.317Z,39.38
2022-08-02T08:13:49.216Z,37.68
2022-08-02T08:18:48.116Z,37.80
2022-08-02T08:23:48.265Z,38.46
2022-08-02T08:28:47.043Z,38.06
2022-08-02T08:33:45.823Z,37.81
2022-08-02T08:38:44.574Z,36.74
2022-08-02T08:43:44.710Z,36.24
2022-08-02T08:48:48.082Z,35.34
2022-08-02T08:53:49.983Z,33.48
2022-08-02T08:58:50.290Z,31.46
2022-08-02T09:03:49.080Z,29.36
2022-08-02T09:08:48.180Z,27.95
2022-08-02T09:13:54.133Z,27.35
2022-08-02T09:18:53.250Z,24.90
2022-08-02T09:23:53.412Z,24.42
2022-08-02T09:29:00.949Z,23.26
2022-08-02T09:34:01.447Z,21.87
2022-08-02T09:39:02.606Z,22.67
2022-08-02T09:44:06.624Z,21.48
2022-08-02T09:49:08.370Z,20.30
2022-08-02T09:54:09.968Z,19.83
2022-08-02T09:59:11.313Z,20.30
2022-08-02T10:04:19.919Z,19.59
2022-08-02T10:09:21.398Z,19.11
2022-08-02T10:14:23.630Z,17.66
2022-08-02T10:20:00.741Z,17.45
2022-08-02T10:24:47.771Z,18.84
2022-08-02T10:29:55.162Z,18.17
2022-08-02T10:34:56.677Z,17.87
2022-08-02T10:39:58.685Z,17.46
2022-08-02T10:45:10.899Z,18.09
2022-08-02T10:50:10.399Z,18.92
2022-08-02T10:55:14.673Z,17.87
2022-08-02T11:00:29.286Z,18.02
2022-08-02T11:05:42.769Z,16.64
2022-08-02T11:10:42.768Z,16.48
2022-08-02T11:15:55.382Z,17.67
2022-08-02T11:21:23.458Z,17.63
2022-08-02T11:26:45.557Z,17.44
2022-08-02T11:31:47.393Z,18.18
2022-08-02T11:36:50.880Z,16.92
2022-08-02T11:41:54.310Z,17.75
2022-08-02T11:46:58.747Z,19.01
2022-08-02T11:52:01.937Z,19.50
2022-08-02T11:57:20.859Z,20.46
2022-08-02T12:02:22.897Z,20.16
2022-08-02T12:07:30.402Z,19.50
2022-08-02T12:12:34.759Z,19.50
2022-08-02T12:17:52.353Z,19.12
2022-08-02T12:22:52.063Z,20.38
2022-08-02T12:27:53.525Z,21.81
2022-08-02T12:33:13.258Z,21.60
2022-08-02T12:38:12.903Z,22.42
2022-08-02T12:43:20.109Z,22.55
2022-08-02T12:48:37.136Z,22.12
2022-08-02T12:53:36.860Z,22.02
2022-08-02T12:58:49.798Z,22.48
2022-08-02T13:04:11.414Z,22.13
2022-08-02T13:09:17.700Z,22.46
2022-08-02T13:14:17.582Z,22.86
2022-08-02T13:19:17.808Z,23.37
2022-08-02T13:55:57.975Z,25.31
2022-08-02T14:00:57.926Z,25.38
2022-08-02T14:06:11.196Z,24.36
2022-08-02T14:11:15.110Z,24.01
2022-08-02T14:16:33.057Z,22.83
2022-08-02T14:21:46.536Z,23.61
2022-08-02T14:26:49.996Z,24.30
2022-08-02T14:32:04.511Z,23.74
2022-08-02T14:37:05.255Z,24.08
2022-08-02T14:42:08.427Z,23.30
2022-08-02T14:47:11.559Z,23.40
2022-08-02T14:52:13.590Z,23.13
2022-08-02T14:57:14.554Z,24.10
2022-08-02T15:02:14.677Z,23.84
2022-08-02T15:07:15.706Z,23.87
2022-08-02T15:12:18.092Z,24.17
2022-08-02T15:17:17.749Z,24.72
2022-08-02T15:22:20.011Z,24.46
2022-08-02T15:27:21.276Z,23.65
2022-08-02T15:32:20.787Z,22.44
2022-08-02T15:37:19.953Z,20.18
2022-08-02T15:42:21.087Z,20.54
2022-08-02T15:47:29.988Z,19.17
2022-08-02T15:52:29.198Z,18.57
2022-08-02T15:57:33.121Z,20.04
2022-08-02T16:02:35.553Z,19.21
2022-08-02T16:07:39.527Z,19.67
2022-08-02T16:12:41.521Z,21.12
2022-08-02T16:17:52.083Z,20.70
2022-08-02T16:22:54.070Z,21.55
2022-08-02T16:27:59.365Z,21.55
2022-08-02T16:33:08.296Z,21.88
2022-08-02T16:38:08.191Z,22.08
2022-08-02T16:43:11.597Z,23.14
2022-08-02T16:48:25.673Z,23.60
2022-08-02T16:53:36.801Z,24.11
2022-08-02T16:58:38.378Z,24.29
2022-08-02T17:03:55.976Z,24.54
2022-08-02T17:08:57.238Z,24.89
2022-08-02T17:14:05.595Z,25.14
2022-08-02T17:19:08.821Z,25.95
2022-08-02T17:24:08.857Z,25.79
2022-08-02T17:29:19.925Z,26.54
2022-08-02T17:34:19.924Z,26.68
2022-08-02T17:39:33.522Z,27.14
2022-08-02T17:44:38.396Z,27.62
2022-08-02T17:49:47.923Z,28.28
2022-08-02T17:54:54.003Z,27.84
2022-08-02T18:00:04.215Z,28.22
2022-08-02T18:05:05.251Z,28.88
2022-08-02T18:10:15.486Z,29.76
2022-08-02T18:15:17.276Z,29.84
2022-08-02T18:20:20.866Z,30.15
2022-08-02T18:25:37.176Z,30.88
2022-08-02T18:30:41.838Z,30.34
2022-08-02T18:35:40.979Z,31.05
2022-08-02T18:40:40.786Z,32.44
2022-08-02T18:46:05.262Z,32.90
2022-08-02T18:51:03.350Z,32.93
2022-08-02T18:56:04.240Z,33.68
2022-08-02T19:01:15.097Z,33.37
2022-08-02T19:06:28.828Z,32.87
2022-08-02T19:11:34.817Z,33.01
2022-08-02T19:16:41.489Z,32.86
2022-08-02T19:22:17.911Z,33.01
2022-08-02T19:27:04.754Z,33.49
2022-08-02T19:32:42.348Z,33.31
2022-08-02T19:37:38.457Z,33.82
2022-08-02T19:44:20.421Z,33.85
2022-08-02T19:48:23.581Z,33.99
2022-08-02T19:53:23.885Z,34.56
2022-08-02T19:58:28.830Z,34.83
2022-08-02T20:03:52.025Z,34.75
2022-08-02T20:08:53.403Z,34.76
2022-08-02T20:13:56.857Z,34.76
2022-08-02T20:18:57.254Z,34.86
2022-08-02T20:23:56.633Z,34.96
2022-08-02T20:28:56.664Z,35.63
2022-08-02T20:34:02.975Z,35.88
2022-08-02T20:39:02.012Z,36.38
2022-08-02T20:44:01.188Z,37.04
2022-08-02T20:49:05.528Z,37.16
2022-08-02T20:54:08.299Z,37.50
2022-08-02T20:59:15.913Z,37.39
2022-08-02T21:04:16.591Z,37.45
2022-08-02T21:09:19.720Z,38.00
2022-08-02T21:14:38.638Z,38.37
2022-08-02T21:19:37.569Z,38.47
2022-08-02T21:24:44.823Z,39.39
2022-08-02T21:29:46.289Z,39.46
2022-08-02T21:34:45.625Z,39.62
2022-08-02T21:39:49.984Z,39.72
2022-08-02T21:44:51.633Z,39.73
2022-08-02T21:50:13.645Z,39.92
2022-08-02T21:55:14.891Z,40.64
2022-08-02T22:00:18.113Z,40.68
2022-08-02T22:05:29.080Z,40.43
2022-08-02T22:38:16.580Z,41.32
2022-08-02T22:42:33.673Z,41.78
2022-08-02T22:47:51.121Z,42.38
2022-08-02T22:54:11.891Z,42.08
2022-08-02T23:05:53.383Z,42.68
2022-08-02T23:11:20.291Z,43.03
2022-08-02T23:16:40.432Z,43.46
2022-08-02T23:22:02.313Z,44.10
2022-08-02T23:27:03.264Z,44.44
